sensor_id;sensor_type;location;lat;lon;timestamp;P1;durP1;ratioP1;P2;durP2;ratioP2
51384;SDS011;37478;55.682;37.462;2022-10-31T00:01:27;0.60;;;0.60;;
51384;SDS011;37478;55.682;37.462;2022-10-31T00:03:53;2.75;;;0.85;;
51384;SDS011;37478;55.682;37.462;2022-10-31T00:06:18;0.68;;;0.60;;
51384;SDS011;37478;55.682;37.462;2022-10-31T00:08:45;2.15;;;0.88;;
51384;SDS011;37478;55.682;37.462;2022-10-31T00:11:10;0.98;;;0.57;;
51384;SDS011;37478;55.682;37.462;2022-10-31T00:13:35;0.40;;;0.38;;
51384;SDS011;37478;55.682;37.462;2022-10-31T00:16:01;0.52;;;0.52;;
51384;SDS011;37478;55.682;37.462;2022-10-31T00:18:26;1.88;;;0.40;;
51384;SDS011;37478;55.682;37.462;2022-10-31T00:21:09;1.80;;;0.77;;
51384;SDS011;37478;55.682;37.462;2022-10-31T00:23:35;0.40;;;0.40;;
51384;SDS011;37478;55.682;37.462;2022-10-31T00:26:00;0.70;;;0.40;;
51384;SDS011;37478;55.682;37.462;2022-10-31T00:28:26;0.50;;;0.50;;
51384;SDS011;37478;55.682;37.462;2022-10-31T00:30:57;2.42;;;0.80;;
51384;SDS011;37478;55.682;37.462;2022-10-31T00:33:23;0.93;;;0.50;;
51384;SDS011;37478;55.682;37.462;2022-10-31T00:35:51;0.30;;;0.30;;
51384;SDS011;37478;55.682;37.462;2022-10-31T00:38:16;0.98;;;0.47;;
51384;SDS011;37478;55.682;37.462;2022-10-31T00:40:42;0.38;;;0.38;;
51384;SDS011;37478;55.682;37.462;2022-10-31T00:43:07;0.60;;;0.60;;
51384;SDS011;37478;55.682;37.462;2022-10-31T00:45:32;0.50;;;0.50;;
51384;SDS011;37478;55.682;37.462;2022-10-31T00:47:57;3.40;;;0.77;;
51384;SDS011;37478;55.682;37.462;2022-10-31T00:50:23;1.25;;;0.60;;
51384;SDS011;37478;55.682;37.462;2022-10-31T00:52:48;0.50;;;0.50;;
51384;SDS011;37478;55.682;37.462;2022-10-31T00:55:13;1.77;;;0.68;;
51384;SDS011;37478;55.682;37.462;2022-10-31T00:57:39;0.40;;;0.40;;
51384;SDS011;37478;55.682;37.462;2022-10-31T01:00:04;1.30;;;0.80;;
51384;SDS011;37478;55.682;37.462;2022-10-31T01:02:29;1.27;;;0.70;;
51384;SDS011;37478;55.682;37.462;2022-10-31T01:04:55;0.70;;;0.55;;
51384;SDS011;37478;55.682;37.462;2022-10-31T01:07:20;1.40;;;0.50;;
51384;SDS011;37478;55.682;37.462;2022-10-31T01:09:45;0.40;;;0.32;;
51384;SDS011;37478;55.682;37.462;2022-10-31T01:12:11;0.93;;;0.47;;
51384;SDS011;37478;55.682;37.462;2022-10-31T01:14:36;1.02;;;0.70;;
51384;SDS011;37478;55.682;37.462;2022-10-31T01:17:01;0.60;;;0.30;;
51384;SDS011;37478;55.682;37.462;2022-10-31T01:19:27;1.55;;;0.47;;
51384;SDS011;37478;55.682;37.462;2022-10-31T01:21:53;1.60;;;0.82;;
51384;SDS011;37478;55.682;37.462;2022-10-31T01:24:19;0.63;;;0.52;;
51384;SDS011;37478;55.682;37.462;2022-10-31T01:26:44;0.43;;;0.40;;
51384;SDS011;37478;55.682;37.462;2022-10-31T01:29:09;0.75;;;0.52;;
51384;SDS011;37478;55.682;37.462;2022-10-31T01:31:36;2.33;;;0.65;;
51384;SDS011;37478;55.682;37.462;2022-10-31T01:34:02;2.13;;;0.52;;
51384;SDS011;37478;55.682;37.462;2022-10-31T01:36:28;0.35;;;0.35;;
51384;SDS011;37478;55.682;37.462;2022-10-31T01:38:55;1.13;;;0.50;;
51384;SDS011;37478;55.682;37.462;2022-10-31T01:41:22;1.15;;;0.73;;
51384;SDS011;37478;55.682;37.462;2022-10-31T01:43:58;1.42;;;0.70;;
51384;SDS011;37478;55.682;37.462;2022-10-31T01:46:34;1.30;;;0.50;;
51384;SDS011;37478;55.682;37.462;2022-10-31T01:49:02;1.02;;;0.60;;
51384;SDS011;37478;55.682;37.462;2022-10-31T01:51:30;1.13;;;0.40;;
51384;SDS011;37478;55.682;37.462;2022-10-31T01:53:58;2.67;;;0.75;;
51384;SDS011;37478;55.682;37.462;2022-10-31T01:56:24;0.73;;;0.60;;
51384;SDS011;37478;55.682;37.462;2022-10-31T01:58:50;1.35;;;0.50;;
51384;SDS011;37478;55.682;37.462;2022-10-31T02:01:16;0.65;;;0.57;;
51384;SDS011;37478;55.682;37.462;2022-10-31T02:03:42;2.58;;;0.47;;
51384;SDS011;37478;55.682;37.462;2022-10-31T02:06:10;0.85;;;0.57;;
51384;SDS011;37478;55.682;37.462;2022-10-31T02:08:37;1.13;;;1.02;;
51384;SDS011;37478;55.682;37.462;2022-10-31T02:11:04;1.33;;;0.75;;
51384;SDS011;37478;55.682;37.462;2022-10-31T02:13:30;0.95;;;0.85;;
51384;SDS011;37478;55.682;37.462;2022-10-31T02:15:56;0.40;;;0.40;;
51384;SDS011;37478;55.682;37.462;2022-10-31T02:18:22;1.63;;;0.82;;
51384;SDS011;37478;55.682;37.462;2022-10-31T02:33:31;1.20;;;0.90;;
51384;SDS011;37478;55.682;37.462;2022-10-31T02:41:04;8.50;;;2.08;;
51384;SDS011;37478;55.682;37.462;2022-10-31T02:46:19;2.22;;;0.73;;
51384;SDS011;37478;55.682;37.462;2022-10-31T02:48:48;2.50;;;1.23;;
51384;SDS011;37478;55.682;37.462;2022-10-31T02:51:15;1.55;;;0.68;;
51384;SDS011;37478;55.682;37.462;2022-10-31T02:53:41;0.63;;;0.63;;
51384;SDS011;37478;55.682;37.462;2022-10-31T02:56:14;1.40;;;1.02;;
51384;SDS011;37478;55.682;37.462;2022-10-31T02:58:42;2.22;;;0.85;;
51384;SDS011;37478;55.682;37.462;2022-10-31T03:01:20;1.73;;;1.00;;
51384;SDS011;37478;55.682;37.462;2022-10-31T03:06:35;1.90;;;1.33;;
51384;SDS011;37478;55.682;37.462;2022-10-31T03:11:58;1.10;;;0.85;;
51384;SDS011;37478;55.682;37.462;2022-10-31T03:14:26;2.40;;;0.70;;
51384;SDS011;37478;55.682;37.462;2022-10-31T03:16:54;2.65;;;0.98;;
51384;SDS011;37478;55.682;37.462;2022-10-31T03:19:33;2.97;;;1.08;;
51384;SDS011;37478;55.682;37.462;2022-10-31T03:22:04;1.38;;;1.00;;
51384;SDS011;37478;55.682;37.462;2022-10-31T03:24:34;1.70;;;1.08;;
51384;SDS011;37478;55.682;37.462;2022-10-31T03:27:00;0.85;;;0.82;;
51384;SDS011;37478;55.682;37.462;2022-10-31T03:29:28;1.38;;;0.85;;
51384;SDS011;37478;55.682;37.462;2022-10-31T03:31:57;0.65;;;0.65;;
51384;SDS011;37478;55.682;37.462;2022-10-31T03:34:24;1.15;;;1.02;;
51384;SDS011;37478;55.682;37.462;2022-10-31T03:36:50;2.58;;;0.98;;
51384;SDS011;37478;55.682;37.462;2022-10-31T03:39:17;7.50;;;1.45;;
51384;SDS011;37478;55.682;37.462;2022-10-31T03:41:44;3.45;;;0.88;;
51384;SDS011;37478;55.682;37.462;2022-10-31T03:44:12;1.73;;;1.05;;
51384;SDS011;37478;55.682;37.462;2022-10-31T03:46:38;1.27;;;0.93;;
51384;SDS011;37478;55.682;37.462;2022-10-31T03:49:04;0.80;;;0.80;;
51384;SDS011;37478;55.682;37.462;2022-10-31T03:53:56;0.98;;;0.70;;
51384;SDS011;37478;55.682;37.462;2022-10-31T03:56:26;0.98;;;0.60;;
51384;SDS011;37478;55.682;37.462;2022-10-31T03:59:36;1.38;;;1.15;;
51384;SDS011;37478;55.682;37.462;2022-10-31T04:01:43;4.85;;;1.48;;
51384;SDS011;37478;55.682;37.462;2022-10-31T04:04:09;0.75;;;0.60;;
51384;SDS011;37478;55.682;37.462;2022-10-31T04:06:36;1.50;;;0.90;;
51384;SDS011;37478;55.682;37.462;2022-10-31T04:09:03;1.42;;;0.65;;
51384;SDS011;37478;55.682;37.462;2022-10-31T04:11:30;2.30;;;0.85;;
51384;SDS011;37478;55.682;37.462;2022-10-31T04:13:56;2.42;;;0.70;;
51384;SDS011;37478;55.682;37.462;2022-10-31T04:16:22;5.35;;;0.90;;
51384;SDS011;37478;55.682;37.462;2022-10-31T04:18:49;1.88;;;1.02;;
51384;SDS011;37478;55.682;37.462;2022-10-31T04:21:14;1.52;;;1.08;;
51384;SDS011;37478;55.682;37.462;2022-10-31T04:23:39;2.28;;;1.45;;
51384;SDS011;37478;55.682;37.462;2022-10-31T04:26:04;3.38;;;1.92;;
51384;SDS011;37478;55.682;37.462;2022-10-31T04:28:30;5.68;;;1.38;;
51384;SDS011;37478;55.682;37.462;2022-10-31T04:30:55;5.20;;;1.33;;
51384;SDS011;37478;55.682;37.462;2022-10-31T04:33:20;1.38;;;1.10;;
51384;SDS011;37478;55.682;37.462;2022-10-31T04:35:46;3.47;;;1.58;;
51384;SDS011;37478;55.682;37.462;2022-10-31T04:38:11;0.93;;;0.68;;
51384;SDS011;37478;55.682;37.462;2022-10-31T04:40:36;2.20;;;1.20;;
51384;SDS011;37478;55.682;37.462;2022-10-31T04:43:02;1.85;;;1.02;;
51384;SDS011;37478;55.682;37.462;2022-10-31T04:45:27;1.83;;;1.15;;
51384;SDS011;37478;55.682;37.462;2022-10-31T04:47:52;1.45;;;1.15;;
51384;SDS011;37478;55.682;37.462;2022-10-31T04:50:18;3.80;;;1.17;;
51384;SDS011;37478;55.682;37.462;2022-10-31T04:52:44;3.08;;;1.08;;
51384;SDS011;37478;55.682;37.462;2022-10-31T04:55:09;2.50;;;1.10;;
51384;SDS011;37478;55.682;37.462;2022-10-31T04:57:42;1.08;;;0.85;;
51384;SDS011;37478;55.682;37.462;2022-10-31T05:00:08;3.17;;;1.40;;
51384;SDS011;37478;55.682;37.462;2022-10-31T05:02:33;1.10;;;1.00;;
51384;SDS011;37478;55.682;37.462;2022-10-31T05:04:59;4.63;;;1.85;;
51384;SDS011;37478;55.682;37.462;2022-10-31T05:07:24;2.60;;;1.02;;
51384;SDS011;37478;55.682;37.462;2022-10-31T05:09:50;2.45;;;1.30;;
51384;SDS011;37478;55.682;37.462;2022-10-31T05:12:15;2.10;;;1.90;;
51384;SDS011;37478;55.682;37.462;2022-10-31T05:14:40;2.90;;;1.33;;
51384;SDS011;37478;55.682;37.462;2022-10-31T05:17:06;1.42;;;1.33;;
51384;SDS011;37478;55.682;37.462;2022-10-31T05:19:31;1.40;;;1.13;;
51384;SDS011;37478;55.682;37.462;2022-10-31T05:21:56;1.95;;;1.23;;
51384;SDS011;37478;55.682;37.462;2022-10-31T05:24:21;2.08;;;1.05;;
51384;SDS011;37478;55.682;37.462;2022-10-31T05:26:47;6.35;;;1.50;;
51384;SDS011;37478;55.682;37.462;2022-10-31T05:29:13;2.50;;;1.52;;
51384;SDS011;37478;55.682;37.462;2022-10-31T05:31:38;2.28;;;1.00;;
51384;SDS011;37478;55.682;37.462;2022-10-31T05:34:03;2.28;;;1.25;;
51384;SDS011;37478;55.682;37.462;2022-10-31T05:36:29;1.55;;;1.30;;
51384;SDS011;37478;55.682;37.462;2022-10-31T05:38:54;1.40;;;1.13;;
51384;SDS011;37478;55.682;37.462;2022-10-31T05:41:19;2.38;;;1.10;;
51384;SDS011;37478;55.682;37.462;2022-10-31T05:43:45;1.05;;;0.95;;
51384;SDS011;37478;55.682;37.462;2022-10-31T05:46:10;3.78;;;1.65;;
51384;SDS011;37478;55.682;37.462;2022-10-31T05:48:36;2.13;;;1.38;;
51384;SDS011;37478;55.682;37.462;2022-10-31T05:51:01;4.55;;;1.58;;
51384;SDS011;37478;55.682;37.462;2022-10-31T05:53:26;1.35;;;1.10;;
51384;SDS011;37478;55.682;37.462;2022-10-31T05:55:51;2.25;;;1.50;;
51384;SDS011;37478;55.682;37.462;2022-10-31T05:58:17;3.28;;;2.17;;
51384;SDS011;37478;55.682;37.462;2022-10-31T06:00:42;2.85;;;1.77;;
51384;SDS011;37478;55.682;37.462;2022-10-31T06:03:08;3.85;;;1.90;;
51384;SDS011;37478;55.682;37.462;2022-10-31T06:05:33;4.18;;;1.40;;
51384;SDS011;37478;55.682;37.462;2022-10-31T06:07:59;3.60;;;1.52;;
51384;SDS011;37478;55.682;37.462;2022-10-31T06:10:24;7.70;;;1.60;;
51384;SDS011;37478;55.682;37.462;2022-10-31T06:12:49;4.47;;;1.40;;
51384;SDS011;37478;55.682;37.462;2022-10-31T06:15:15;6.38;;;1.67;;
51384;SDS011;37478;55.682;37.462;2022-10-31T06:17:40;2.63;;;1.80;;
51384;SDS011;37478;55.682;37.462;2022-10-31T06:20:06;3.95;;;1.73;;
51384;SDS011;37478;55.682;37.462;2022-10-31T06:22:32;4.18;;;1.80;;
51384;SDS011;37478;55.682;37.462;2022-10-31T06:24:57;4.75;;;2.03;;
51384;SDS011;37478;55.682;37.462;2022-10-31T06:27:22;2.10;;;1.40;;
51384;SDS011;37478;55.682;37.462;2022-10-31T06:29:48;3.15;;;2.45;;
51384;SDS011;37478;55.682;37.462;2022-10-31T06:32:13;7.93;;;4.75;;
51384;SDS011;37478;55.682;37.462;2022-10-31T06:34:39;7.97;;;3.35;;
51384;SDS011;37478;55.682;37.462;2022-10-31T06:37:05;10.45;;;5.22;;
51384;SDS011;37478;55.682;37.462;2022-10-31T06:39:31;8.50;;;3.13;;
51384;SDS011;37478;55.682;37.462;2022-10-31T06:41:56;13.48;;;5.65;;
51384;SDS011;37478;55.682;37.462;2022-10-31T06:44:21;5.70;;;3.10;;
51384;SDS011;37478;55.682;37.462;2022-10-31T06:46:47;10.85;;;3.50;;
51384;SDS011;37478;55.682;37.462;2022-10-31T06:49:12;4.38;;;2.95;;
51384;SDS011;37478;55.682;37.462;2022-10-31T06:51:37;9.70;;;4.03;;
51384;SDS011;37478;55.682;37.462;2022-10-31T06:54:03;8.65;;;3.53;;
51384;SDS011;37478;55.682;37.462;2022-10-31T06:56:28;8.27;;;5.07;;
51384;SDS011;37478;55.682;37.462;2022-10-31T06:58:53;9.05;;;5.75;;
51384;SDS011;37478;55.682;37.462;2022-10-31T07:01:19;8.23;;;4.03;;
51384;SDS011;37478;55.682;37.462;2022-10-31T07:03:44;6.80;;;4.15;;
51384;SDS011;37478;55.682;37.462;2022-10-31T07:06:09;4.07;;;3.45;;
51384;SDS011;37478;55.682;37.462;2022-10-31T07:08:35;5.80;;;3.80;;
51384;SDS011;37478;55.682;37.462;2022-10-31T07:11:00;7.00;;;4.47;;
51384;SDS011;37478;55.682;37.462;2022-10-31T07:13:25;7.95;;;4.97;;
51384;SDS011;37478;55.682;37.462;2022-10-31T07:15:54;11.90;;;7.15;;
51384;SDS011;37478;55.682;37.462;2022-10-31T07:18:20;5.22;;;4.00;;
51384;SDS011;37478;55.682;37.462;2022-10-31T07:20:45;6.70;;;3.25;;
51384;SDS011;37478;55.682;37.462;2022-10-31T07:23:10;6.65;;;2.83;;
51384;SDS011;37478;55.682;37.462;2022-10-31T07:25:36;3.88;;;3.05;;
51384;SDS011;37478;55.682;37.462;2022-10-31T07:28:02;4.68;;;3.08;;
51384;SDS011;37478;55.682;37.462;2022-10-31T07:30:27;2.50;;;2.05;;
51384;SDS011;37478;55.682;37.462;2022-10-31T07:32:52;2.72;;;1.85;;
51384;SDS011;37478;55.682;37.462;2022-10-31T07:35:19;2.80;;;1.98;;
51384;SDS011;37478;55.682;37.462;2022-10-31T07:37:44;3.03;;;1.80;;
51384;SDS011;37478;55.682;37.462;2022-10-31T07:40:10;3.55;;;1.63;;
51384;SDS011;37478;55.682;37.462;2022-10-31T07:42:42;1.90;;;1.42;;
51384;SDS011;37478;55.682;37.462;2022-10-31T07:45:09;1.77;;;1.35;;
51384;SDS011;37478;55.682;37.462;2022-10-31T07:47:52;2.05;;;1.83;;
51384;SDS011;37478;55.682;37.462;2022-10-31T07:50:19;2.45;;;1.90;;
51384;SDS011;37478;55.682;37.462;2022-10-31T07:52:44;3.30;;;1.90;;
51384;SDS011;37478;55.682;37.462;2022-10-31T07:55:10;1.98;;;1.70;;
51384;SDS011;37478;55.682;37.462;2022-10-31T07:57:35;3.65;;;2.20;;
51384;SDS011;37478;55.682;37.462;2022-10-31T08:00:05;2.63;;;2.03;;
51384;SDS011;37478;55.682;37.462;2022-10-31T08:02:30;4.07;;;2.42;;
51384;SDS011;37478;55.682;37.462;2022-10-31T08:04:56;1.38;;;1.27;;
51384;SDS011;37478;55.682;37.462;2022-10-31T08:07:21;3.50;;;1.63;;
51384;SDS011;37478;55.682;37.462;2022-10-31T08:09:46;2.80;;;1.60;;
51384;SDS011;37478;55.682;37.462;2022-10-31T08:12:12;2.65;;;1.98;;
51384;SDS011;37478;55.682;37.462;2022-10-31T08:14:37;2.67;;;1.90;;
51384;SDS011;37478;55.682;37.462;2022-10-31T08:17:02;1.48;;;1.05;;
51384;SDS011;37478;55.682;37.462;2022-10-31T08:19:27;3.30;;;2.60;;
51384;SDS011;37478;55.682;37.462;2022-10-31T08:21:53;6.13;;;2.88;;
51384;SDS011;37478;55.682;37.462;2022-10-31T08:24:20;2.40;;;2.10;;
51384;SDS011;37478;55.682;37.462;2022-10-31T08:26:45;1.75;;;1.60;;
51384;SDS011;37478;55.682;37.462;2022-10-31T08:29:10;2.42;;;1.63;;
51384;SDS011;37478;55.682;37.462;2022-10-31T08:31:36;2.42;;;2.05;;
51384;SDS011;37478;55.682;37.462;2022-10-31T08:34:01;2.40;;;1.50;;
51384;SDS011;37478;55.682;37.462;2022-10-31T08:36:27;2.72;;;1.85;;
51384;SDS011;37478;55.682;37.462;2022-10-31T08:38:53;2.10;;;1.48;;
51384;SDS011;37478;55.682;37.462;2022-10-31T08:41:18;3.58;;;1.52;;
51384;SDS011;37478;55.682;37.462;2022-10-31T08:43:43;1.55;;;1.13;;
51384;SDS011;37478;55.682;37.462;2022-10-31T08:46:09;3.15;;;1.98;;
51384;SDS011;37478;55.682;37.462;2022-10-31T08:48:34;2.60;;;1.70;;
51384;SDS011;37478;55.682;37.462;2022-10-31T08:50:59;3.70;;;1.80;;
51384;SDS011;37478;55.682;37.462;2022-10-31T08:53:25;1.83;;;1.35;;
51384;SDS011;37478;55.682;37.462;2022-10-31T08:55:50;3.25;;;1.48;;
51384;SDS011;37478;55.682;37.462;2022-10-31T08:58:19;2.58;;;1.88;;
51384;SDS011;37478;55.682;37.462;2022-10-31T09:00:45;2.03;;;1.38;;
51384;SDS011;37478;55.682;37.462;2022-10-31T09:03:11;4.00;;;1.75;;
51384;SDS011;37478;55.682;37.462;2022-10-31T09:05:37;2.47;;;1.75;;
51384;SDS011;37478;55.682;37.462;2022-10-31T09:08:03;4.20;;;1.77;;
51384;SDS011;37478;55.682;37.462;2022-10-31T09:10:29;3.47;;;1.73;;
51384;SDS011;37478;55.682;37.462;2022-10-31T09:12:58;5.03;;;2.55;;
51384;SDS011;37478;55.682;37.462;2022-10-31T09:15:24;2.40;;;1.80;;
51384;SDS011;37478;55.682;37.462;2022-10-31T09:17:49;5.00;;;1.92;;
51384;SDS011;37478;55.682;37.462;2022-10-31T09:20:15;3.15;;;1.83;;
51384;SDS011;37478;55.682;37.462;2022-10-31T09:22:40;4.25;;;2.50;;
51384;SDS011;37478;55.682;37.462;2022-10-31T09:25:06;3.83;;;2.08;;
51384;SDS011;37478;55.682;37.462;2022-10-31T09:27:31;2.50;;;1.95;;
51384;SDS011;37478;55.682;37.462;2022-10-31T09:29:56;2.47;;;1.92;;
51384;SDS011;37478;55.682;37.462;2022-10-31T09:32:22;2.40;;;1.63;;
51384;SDS011;37478;55.682;37.462;2022-10-31T09:34:47;2.40;;;1.50;;
51384;SDS011;37478;55.682;37.462;2022-10-31T09:37:12;2.30;;;1.35;;
51384;SDS011;37478;55.682;37.462;2022-10-31T09:39:37;7.28;;;1.90;;
51384;SDS011;37478;55.682;37.462;2022-10-31T09:54:56;1.67;;;1.38;;
51384;SDS011;37478;55.682;37.462;2022-10-31T09:57:31;2.45;;;1.95;;
51384;SDS011;37478;55.682;37.462;2022-10-31T09:59:57;3.05;;;2.25;;
51384;SDS011;37478;55.682;37.462;2022-10-31T10:04:51;1.20;;;1.10;;
51384;SDS011;37478;55.682;37.462;2022-10-31T10:07:25;2.35;;;1.02;;
51384;SDS011;37478;55.682;37.462;2022-10-31T10:09:55;1.42;;;1.00;;
51384;SDS011;37478;55.682;37.462;2022-10-31T10:17:41;0.77;;;0.77;;
51384;SDS011;37478;55.682;37.462;2022-10-31T10:22:45;2.00;;;1.30;;
51384;SDS011;37478;55.682;37.462;2022-10-31T10:25:15;2.10;;;1.35;;
51384;SDS011;37478;55.682;37.462;2022-10-31T10:32:41;2.58;;;1.83;;
51384;SDS011;37478;55.682;37.462;2022-10-31T10:35:11;3.10;;;2.20;;
51384;SDS011;37478;55.682;37.462;2022-10-31T10:37:40;1.52;;;1.25;;
51384;SDS011;37478;55.682;37.462;2022-10-31T10:40:16;4.30;;;2.42;;
51384;SDS011;37478;55.682;37.462;2022-10-31T10:42:50;1.65;;;1.48;;
51384;SDS011;37478;55.682;37.462;2022-10-31T10:45:36;2.65;;;1.52;;
51384;SDS011;37478;55.682;37.462;2022-10-31T10:48:42;2.33;;;2.10;;
51384;SDS011;37478;55.682;37.462;2022-10-31T10:51:06;2.57;;;1.97;;
51384;SDS011;37478;55.682;37.462;2022-10-31T10:53:49;2.38;;;1.80;;
51384;SDS011;37478;55.682;37.462;2022-10-31T10:58:55;1.70;;;1.50;;
51384;SDS011;37478;55.682;37.462;2022-10-31T11:01:21;3.28;;;1.10;;
51384;SDS011;37478;55.682;37.462;2022-10-31T11:03:47;1.65;;;1.15;;
51384;SDS011;37478;55.682;37.462;2022-10-31T11:06:19;1.30;;;1.15;;
51384;SDS011;37478;55.682;37.462;2022-10-31T11:08:47;1.45;;;0.70;;
51384;SDS011;37478;55.682;37.462;2022-10-31T11:11:31;2.78;;;1.13;;
51384;SDS011;37478;55.682;37.462;2022-10-31T11:13:58;1.17;;;1.05;;
51384;SDS011;37478;55.682;37.462;2022-10-31T11:18:49;1.55;;;0.95;;
51384;SDS011;37478;55.682;37.462;2022-10-31T11:21:23;4.30;;;1.27;;
51384;SDS011;37478;55.682;37.462;2022-10-31T11:23:49;1.17;;;0.95;;
51384;SDS011;37478;55.682;37.462;2022-10-31T11:26:23;1.45;;;1.02;;
51384;SDS011;37478;55.682;37.462;2022-10-31T11:28:58;1.38;;;1.00;;
51384;SDS011;37478;55.682;37.462;2022-10-31T11:31:24;2.55;;;1.27;;
51384;SDS011;37478;55.682;37.462;2022-10-31T11:33:52;2.38;;;1.25;;
51384;SDS011;37478;55.682;37.462;2022-10-31T11:36:23;4.22;;;1.55;;
51384;SDS011;37478;55.682;37.462;2022-10-31T11:38:49;0.60;;;0.60;;
51384;SDS011;37478;55.682;37.462;2022-10-31T11:41:23;1.73;;;1.27;;
51384;SDS011;37478;55.682;37.462;2022-10-31T11:44:02;2.88;;;1.30;;
51384;SDS011;37478;55.682;37.462;2022-10-31T11:49:00;1.92;;;1.05;;
51384;SDS011;37478;55.682;37.462;2022-10-31T11:51:30;2.15;;;1.00;;
51384;SDS011;37478;55.682;37.462;2022-10-31T11:53:59;2.30;;;1.48;;
51384;SDS011;37478;55.682;37.462;2022-10-31T11:56:27;1.80;;;0.80;;
51384;SDS011;37478;55.682;37.462;2022-10-31T11:58:56;4.57;;;1.38;;
51384;SDS011;37478;55.682;37.462;2022-10-31T12:01:24;1.63;;;0.80;;
51384;SDS011;37478;55.682;37.462;2022-10-31T12:06:22;1.15;;;0.90;;
51384;SDS011;37478;55.682;37.462;2022-10-31T12:08:48;0.95;;;0.65;;
51384;SDS011;37478;55.682;37.462;2022-10-31T12:14:26;3.88;;;1.27;;
51384;SDS011;37478;55.682;37.462;2022-10-31T12:26:45;1.67;;;1.40;;
51384;SDS011;37478;55.682;37.462;2022-10-31T12:52:30;3.03;;;2.17;;
51384;SDS011;37478;55.682;37.462;2022-10-31T12:57:28;3.33;;;1.38;;
51384;SDS011;37478;55.682;37.462;2022-10-31T13:00:00;2.55;;;1.25;;
51384;SDS011;37478;55.682;37.462;2022-10-31T13:04:55;2.75;;;1.88;;
51384;SDS011;37478;55.682;37.462;2022-10-31T13:07:28;3.22;;;2.30;;
51384;SDS011;37478;55.682;37.462;2022-10-31T13:09:56;1.73;;;1.55;;
51384;SDS011;37478;55.682;37.462;2022-10-31T13:12:24;3.45;;;1.48;;
51384;SDS011;37478;55.682;37.462;2022-10-31T13:14:53;3.00;;;1.30;;
51384;SDS011;37478;55.682;37.462;2022-10-31T13:17:33;1.98;;;0.98;;
51384;SDS011;37478;55.682;37.462;2022-10-31T13:20:05;3.78;;;1.13;;
51384;SDS011;37478;55.682;37.462;2022-10-31T13:22:37;2.03;;;1.17;;
51384;SDS011;37478;55.682;37.462;2022-10-31T13:25:11;2.65;;;1.58;;
51384;SDS011;37478;55.682;37.462;2022-10-31T13:30:05;1.77;;;1.20;;
51384;SDS011;37478;55.682;37.462;2022-10-31T13:32:48;2.50;;;1.58;;
51384;SDS011;37478;55.682;37.462;2022-10-31T13:35:18;1.88;;;1.25;;
51384;SDS011;37478;55.682;37.462;2022-10-31T13:37:46;1.63;;;1.17;;
51384;SDS011;37478;55.682;37.462;2022-10-31T13:45:25;1.45;;;1.05;;
51384;SDS011;37478;55.682;37.462;2022-10-31T13:47:57;1.27;;;1.17;;
51384;SDS011;37478;55.682;37.462;2022-10-31T13:50:24;1.98;;;1.52;;
51384;SDS011;37478;55.682;37.462;2022-10-31T13:52:50;1.85;;;1.35;;
51384;SDS011;37478;55.682;37.462;2022-10-31T13:55:35;2.05;;;1.40;;
51384;SDS011;37478;55.682;37.462;2022-10-31T13:58:03;2.22;;;1.58;;
51384;SDS011;37478;55.682;37.462;2022-10-31T14:00:28;4.75;;;1.70;;
51384;SDS011;37478;55.682;37.462;2022-10-31T14:02:57;2.00;;;1.70;;
51384;SDS011;37478;55.682;37.462;2022-10-31T14:05:32;4.57;;;1.30;;
51384;SDS011;37478;55.682;37.462;2022-10-31T14:07:59;2.60;;;1.35;;
51384;SDS011;37478;55.682;37.462;2022-10-31T14:10:31;4.53;;;1.63;;
51384;SDS011;37478;55.682;37.462;2022-10-31T14:16:16;1.65;;;0.90;;
51384;SDS011;37478;55.682;37.462;2022-10-31T14:18:37;2.78;;;1.73;;
51384;SDS011;37478;55.682;37.462;2022-10-31T14:21:14;6.82;;;1.17;;
51384;SDS011;37478;55.682;37.462;2022-10-31T14:23:40;3.17;;;2.10;;
51384;SDS011;37478;55.682;37.462;2022-10-31T14:26:17;4.03;;;1.98;;
51384;SDS011;37478;55.682;37.462;2022-10-31T14:28:43;3.67;;;2.00;;
51384;SDS011;37478;55.682;37.462;2022-10-31T14:33:52;3.90;;;2.13;;
51384;SDS011;37478;55.682;37.462;2022-10-31T14:36:18;4.60;;;2.08;;
51384;SDS011;37478;55.682;37.462;2022-10-31T14:46:07;2.35;;;1.33;;
51384;SDS011;37478;55.682;37.462;2022-10-31T14:48:39;3.42;;;1.42;;
51384;SDS011;37478;55.682;37.462;2022-10-31T14:51:26;2.17;;;1.50;;
51384;SDS011;37478;55.682;37.462;2022-10-31T14:53:56;1.98;;;1.42;;
51384;SDS011;37478;55.682;37.462;2022-10-31T14:56:25;2.25;;;1.75;;
51384;SDS011;37478;55.682;37.462;2022-10-31T14:58:51;2.40;;;1.70;;
51384;SDS011;37478;55.682;37.462;2022-10-31T15:01:27;3.05;;;1.58;;
51384;SDS011;37478;55.682;37.462;2022-10-31T15:03:54;3.60;;;1.48;;
51384;SDS011;37478;55.682;37.462;2022-10-31T15:06:22;2.25;;;1.70;;
51384;SDS011;37478;55.682;37.462;2022-10-31T15:08:52;1.73;;;1.30;;
51384;SDS011;37478;55.682;37.462;2022-10-31T15:11:21;2.85;;;1.73;;
51384;SDS011;37478;55.682;37.462;2022-10-31T15:13:51;3.47;;;1.90;;
51384;SDS011;37478;55.682;37.462;2022-10-31T15:19:07;2.20;;;1.40;;
51384;SDS011;37478;55.682;37.462;2022-10-31T15:21:32;2.63;;;1.48;;
51384;SDS011;37478;55.682;37.462;2022-10-31T15:23:59;5.13;;;2.13;;
51384;SDS011;37478;55.682;37.462;2022-10-31T15:26:35;2.65;;;1.60;;
51384;SDS011;37478;55.682;37.462;2022-10-31T15:29:03;7.20;;;2.05;;
51384;SDS011;37478;55.682;37.462;2022-10-31T15:31:29;3.15;;;2.00;;
51384;SDS011;37478;55.682;37.462;2022-10-31T15:33:58;3.65;;;1.98;;
51384;SDS011;37478;55.682;37.462;2022-10-31T15:36:25;2.40;;;2.08;;
51384;SDS011;37478;55.682;37.462;2022-10-31T15:38:51;2.40;;;1.65;;
51384;SDS011;37478;55.682;37.462;2022-10-31T15:41:21;4.50;;;2.50;;
51384;SDS011;37478;55.682;37.462;2022-10-31T15:43:48;1.90;;;1.38;;
51384;SDS011;37478;55.682;37.462;2022-10-31T15:46:14;3.92;;;2.78;;
51384;SDS011;37478;55.682;37.462;2022-10-31T15:48:39;2.22;;;1.67;;
51384;SDS011;37478;55.682;37.462;2022-10-31T15:51:09;2.58;;;1.75;;
51384;SDS011;37478;55.682;37.462;2022-10-31T15:53:41;2.42;;;1.92;;
51384;SDS011;37478;55.682;37.462;2022-10-31T15:56:08;2.63;;;1.77;;
51384;SDS011;37478;55.682;37.462;2022-10-31T15:58:45;4.03;;;2.28;;
51384;SDS011;37478;55.682;37.462;2022-10-31T16:03:54;4.03;;;2.70;;
51384;SDS011;37478;55.682;37.462;2022-10-31T16:06:21;3.00;;;1.75;;
51384;SDS011;37478;55.682;37.462;2022-10-31T16:08:47;5.05;;;2.05;;
51384;SDS011;37478;55.682;37.462;2022-10-31T16:11:16;7.25;;;1.90;;
51384;SDS011;37478;55.682;37.462;2022-10-31T16:16:20;3.88;;;2.20;;
51384;SDS011;37478;55.682;37.462;2022-10-31T16:18:47;4.65;;;2.92;;
51384;SDS011;37478;55.682;37.462;2022-10-31T16:21:12;3.47;;;2.38;;
51384;SDS011;37478;55.682;37.462;2022-10-31T16:23:38;3.22;;;2.35;;
51384;SDS011;37478;55.682;37.462;2022-10-31T16:26:07;2.63;;;2.10;;
51384;SDS011;37478;55.682;37.462;2022-10-31T16:28:33;3.42;;;2.42;;
51384;SDS011;37478;55.682;37.462;2022-10-31T16:30:59;3.28;;;2.58;;
51384;SDS011;37478;55.682;37.462;2022-10-31T16:35:50;1.42;;;1.33;;
51384;SDS011;37478;55.682;37.462;2022-10-31T16:38:15;3.35;;;1.50;;
51384;SDS011;37478;55.682;37.462;2022-10-31T16:40:40;3.75;;;1.70;;
51384;SDS011;37478;55.682;37.462;2022-10-31T16:43:13;2.63;;;1.83;;
51384;SDS011;37478;55.682;37.462;2022-10-31T16:45:44;6.55;;;2.53;;
51384;SDS011;37478;55.682;37.462;2022-10-31T16:48:14;4.25;;;2.50;;
51384;SDS011;37478;55.682;37.462;2022-10-31T16:50:40;7.15;;;2.30;;
51384;SDS011;37478;55.682;37.462;2022-10-31T16:53:06;3.28;;;2.20;;
51384;SDS011;37478;55.682;37.462;2022-10-31T16:55:31;3.88;;;2.20;;